Cruzeiro Do Canal — CSVG — position and weather

sailwx.info

Track history (hours):
 
Tides and Currents Weather Stations Pressure Air Temp Water Temp Dewpoint Dewpoint Depression Visibility Wind Speed Wind Dir Waves Ship Positions

Cruzeiro Do Canal

Last reported at 2015-Aug-29 12:33 UTC. Time now 2015-Aug-29 12:39 UTC.
Position N 38°34' W 028°31'.

Length 32 m.

Type: Passenger vessel. MMSI: 204701250.

Date/timePositionNaut miles runAvg speedWind from/ knotsBaromVisibWave heightAir tempDewpointWater temp
2015-Aug-29 12:33N 38°34' W 028°31'10 9.6
2015-Aug-29 11:34N 38°32' W 028°19'10 9.9
2015-Aug-29 10:34N 38°40' W 028°12'6 6.3
2015-Aug-29 09:34N 38°38' W 028°20'1111.3
2015-Aug-29 08:33N 38°34' W 028°33'  
2015-Aug-25 23:33N 38°32' W 028°37'1111.2
2015-Aug-25 22:33N 38°37' W 028°24'1010.2
2015-Aug-25 21:34N 38°41' W 028°12'9 9.1
2015-Aug-25 20:33N 38°36' W 028°23'8 8.5
2015-Aug-25 19:33N 38°32' W 028°32'4 1.1
2015-Aug-25 15:33N 38°32' W 028°37'0 0.0
2015-Aug-25 14:34N 38°32' W 028°37'0 0.0
2015-Aug-25 13:34N 38°32' W 028°37'1 1.5
2015-Aug-25 12:34N 38°32' W 028°35'8 8.3
2015-Aug-25 11:33N 38°36' W 028°26'1111.0
2015-Aug-25 10:34N 38°40' W 028°13'6 6.0
2015-Aug-25 09:33N 38°38' W 028°20'1211.6
2015-Aug-25 08:34N 38°34' W 028°34'  
2015-Aug-22 22:33N 38°33' W 028°34'1211.8
2015-Aug-22 21:33N 38°38' W 028°20'6 5.9
2015-Aug-22 20:33N 38°40' W 028°13'9 9.3
2015-Aug-22 19:33N 38°32' W 028°19'9 8.7
2015-Aug-22 18:33N 38°34' W 028°30'6 5.7
2015-Aug-22 17:33N 38°32' W 028°37'0 0.0
2015-Aug-22 16:34N 38°32' W 028°37'0 0.0
2015-Aug-22 15:33N 38°32' W 028°37'0 0.0
2015-Aug-22 14:34N 38°32' W 028°37'0 0.0
2015-Aug-22 13:33N 38°32' W 028°37'5 5.2
2015-Aug-22 12:33N 38°34' W 028°31'9 9.2
2015-Aug-22 11:33N 38°32' W 028°19'1010.0
2015-Aug-22 10:33N 38°40' W 028°12'7 7.1
2015-Aug-22 09:34N 38°37' W 028°21'1111.1
2015-Aug-22 08:33N 38°33' W 028°34'  
Track history (hours):
 
Tides and Currents Weather Stations Pressure Air Temp Water Temp Dewpoint Dewpoint Depression Visibility Wind Speed Wind Dir Waves Ship Positions

Cruzeiro Do Canal

Last reported at 2015-Aug-29 12:33 UTC. Time now 2015-Aug-29 12:39 UTC.
Position N 38°34' W 028°31'.

Length 32 m.

Type: Passenger vessel. MMSI: 204701250.

Date/timePositionNaut miles runAvg speedWind from/ knotsBaromVisibWave heightAir tempDewpointWater temp
2015-Aug-29 12:33N 38°34' W 028°31'10 9.6
2015-Aug-29 11:34N 38°32' W 028°19'10 9.9
2015-Aug-29 10:34N 38°40' W 028°12'6 6.3
2015-Aug-29 09:34N 38°38' W 028°20'1111.3
2015-Aug-29 08:33N 38°34' W 028°33'  
2015-Aug-25 23:33N 38°32' W 028°37'1111.2
2015-Aug-25 22:33N 38°37' W 028°24'1010.2
2015-Aug-25 21:34N 38°41' W 028°12'9 9.1
2015-Aug-25 20:33N 38°36' W 028°23'8 8.5
2015-Aug-25 19:33N 38°32' W 028°32'4 1.1
2015-Aug-25 15:33N 38°32' W 028°37'0 0.0
2015-Aug-25 14:34N 38°32' W 028°37'0 0.0
2015-Aug-25 13:34N 38°32' W 028°37'1 1.5
2015-Aug-25 12:34N 38°32' W 028°35'8 8.3
2015-Aug-25 11:33N 38°36' W 028°26'1111.0
2015-Aug-25 10:34N 38°40' W 028°13'6 6.0
2015-Aug-25 09:33N 38°38' W 028°20'1211.6
2015-Aug-25 08:34N 38°34' W 028°34'  
2015-Aug-22 22:33N 38°33' W 028°34'1211.8
2015-Aug-22 21:33N 38°38' W 028°20'6 5.9
2015-Aug-22 20:33N 38°40' W 028°13'9 9.3
2015-Aug-22 19:33N 38°32' W 028°19'9 8.7
2015-Aug-22 18:33N 38°34' W 028°30'6 5.7
2015-Aug-22 17:33N 38°32' W 028°37'0 0.0
2015-Aug-22 16:34N 38°32' W 028°37'0 0.0
2015-Aug-22 15:33N 38°32' W 028°37'0 0.0
2015-Aug-22 14:34N 38°32' W 028°37'0 0.0
2015-Aug-22 13:33N 38°32' W 028°37'5 5.2
2015-Aug-22 12:33N 38°34' W 028°31'9 9.2
2015-Aug-22 11:33N 38°32' W 028°19'1010.0
2015-Aug-22 10:33N 38°40' W 028°12'7 7.1
2015-Aug-22 09:34N 38°37' W 028°21'1111.1
2015-Aug-22 08:33N 38°33' W 028°34'  

Dump ship's entire track history